Time;durP1;ratioP1;P1;durP2;ratioP2;P2;SDS_P1;SDS_P2;PMS_P1;PMS_P2;Temp;Humidity;BMP_temperature;BMP_pressure;BME280_temperature;BME280_humidity;BME280_pressure;Samples;Min_cycle;Max_cycle;Signal;HPM_P1;HPM_P2
2022/04/19 00:00:52;;;;;;;0.10;0.10;;;6.30;99.90;12.80;88045.00;;;;5015708;28;20196;-69
2022/04/19 00:03:21;;;;;;;0.10;0.10;;;6.30;99.90;12.80;88045.00;;;;5014109;28;20195;-69
2022/04/19 00:05:50;;;;;;;0.10;0.10;;;6.10;99.90;12.80;88045.00;;;;5015614;28;20208;-70
2022/04/19 00:08:18;;;;;;;0.08;0.08;;;6.20;99.90;12.80;88045.00;;;;5017083;28;20254;-70
2022/04/19 00:10:49;;;;;;;0.10;0.10;;;6.10;99.90;12.80;88045.00;;;;5017690;28;20684;-70
2022/04/19 00:13:17;;;;;;;0.10;0.10;;;6.00;99.90;12.80;88045.00;;;;5017330;28;20265;-70
2022/04/19 00:15:46;;;;;;;0.10;0.10;;;6.00;99.90;12.80;88045.00;;;;5014450;28;20211;-70
2022/04/19 00:18:15;;;;;;;0.10;0.10;;;5.90;99.90;12.80;88045.00;;;;5014516;28;20198;-70
2022/04/19 00:20:45;;;;;;;0.10;0.10;;;5.80;99.90;12.80;88045.00;;;;5014729;28;20192;-70
2022/04/19 00:23:14;;;;;;;0.10;0.10;;;5.60;99.90;12.80;88045.00;;;;5014378;28;20759;-70
2022/04/19 00:25:43;;;;;;;0.10;0.10;;;5.50;99.90;12.80;88045.00;;;;5014636;28;20725;-70
2022/04/19 00:28:12;;;;;;;0.10;0.10;;;5.50;99.90;12.80;88045.00;;;;5014270;28;20196;-70
2022/04/19 00:30:40;;;;;;;0.13;0.13;;;5.50;99.90;12.80;88045.00;;;;5014328;28;20562;-70
2022/04/19 00:33:10;;;;;;;0.10;0.10;;;5.40;99.90;12.80;88045.00;;;;5014007;28;20208;-70
2022/04/19 00:35:39;;;;;;;0.10;0.10;;;5.50;99.90;12.80;88045.00;;;;5012774;28;20199;-70
2022/04/19 00:38:09;;;;;;;0.10;0.10;;;5.40;99.90;12.80;88045.00;;;;5012844;28;20697;-70
2022/04/19 00:40:37;;;;;;;0.10;0.10;;;5.30;99.90;12.80;88045.00;;;;5029691;28;20199;-70
2022/04/19 00:43:08;;;;;;;0.10;0.10;;;5.30;99.90;12.80;88045.00;;;;5012762;28;20720;-70
2022/04/19 00:45:36;;;;;;;0.10;0.10;;;5.10;99.90;12.80;88045.00;;;;5013940;28;20198;-70
2022/04/19 00:48:07;;;;;;;0.10;0.10;;;5.00;99.90;12.80;88045.00;;;;5014000;28;20279;-69
2022/04/19 00:50:36;;;;;;;0.10;0.10;;;5.00;99.90;12.80;88045.00;;;;5029387;28;20192;-70
2022/04/19 00:53:09;;;;;;;0.10;0.10;;;5.00;99.90;12.80;88045.00;;;;5012521;28;20273;-70
2022/04/19 00:55:38;;;;;;;0.10;0.10;;;5.00;99.90;12.80;88045.00;;;;5012669;28;20200;-70
2022/04/19 00:58:07;;;;;;;0.10;0.10;;;5.00;99.90;12.80;88045.00;;;;5028961;28;20227;-69
2022/04/19 01:00:38;;;;;;;0.10;0.10;;;5.00;99.90;12.80;88045.00;;;;5011845;28;20203;-70
2022/04/19 01:03:10;;;;;;;0.10;0.10;;;4.90;99.90;12.80;88045.00;;;;5029396;28;20247;-69
2022/04/19 01:05:39;;;;;;;0.10;0.10;;;4.80;99.90;12.80;88045.00;;;;5012145;28;20692;-70
2022/04/19 01:08:15;;;;;;;0.10;0.10;;;4.80;99.90;12.80;88045.00;;;;5012533;28;20270;-70
2022/04/19 01:10:45;;;;;;;0.10;0.10;;;4.80;99.90;12.80;88045.00;;;;5012556;28;20196;-70
2022/04/19 01:13:23;;;;;;;0.10;0.10;;;4.90;99.90;12.80;88045.00;;;;5029006;28;20766;-70
2022/04/19 01:15:54;;;;;;;0.10;0.10;;;4.90;99.90;12.80;88045.00;;;;5012209;28;20223;-70
2022/04/19 01:18:25;;;;;;;0.10;0.10;;;5.00;99.90;12.80;88045.00;;;;5012125;28;20232;-70
2022/04/19 01:21:06;;;;;;;0.10;0.10;;;5.00;99.90;12.80;88045.00;;;;5012085;28;20665;-70
2022/04/19 01:23:35;;;;;;;0.10;0.10;;;5.00;99.90;12.80;88045.00;;;;5012515;28;20250;-71
2022/04/19 01:26:03;;;;;;;0.10;0.10;;;4.90;99.90;12.80;88045.00;;;;5011923;28;20202;-70
2022/04/19 01:28:31;;;;;;;0.10;0.10;;;4.90;99.90;12.80;88045.00;;;;5013959;28;20192;-70
2022/04/19 01:31:03;;;;;;;0.10;0.10;;;4.80;99.90;12.80;88045.00;;;;5012928;28;20199;-70
2022/04/19 01:33:40;;;;;;;0.10;0.10;;;4.60;99.90;12.80;88045.00;;;;5014077;28;20183;-70
2022/04/19 01:36:10;;;;;;;0.10;0.10;;;4.60;99.90;12.80;88045.00;;;;5028755;28;20196;-70
2022/04/19 01:38:43;;;;;;;0.10;0.10;;;4.50;99.90;12.80;88045.00;;;;5012565;28;20243;-70
2022/04/19 01:41:13;;;;;;;0.10;0.10;;;4.40;99.90;12.80;88045.00;;;;5029046;28;20211;-70
2022/04/19 01:43:46;;;;;;;0.10;0.10;;;4.50;99.90;12.80;88045.00;;;;5012170;28;20199;-70
2022/04/19 01:46:17;;;;;;;0.10;0.10;;;4.50;99.90;12.80;88045.00;;;;5028201;28;20204;-70
2022/04/19 01:48:46;;;;;;;0.10;0.10;;;4.60;99.90;12.80;88045.00;;;;5012201;28;20208;-70
2022/04/19 01:51:15;;;;;;;0.10;0.10;;;4.70;99.90;12.80;88045.00;;;;5028129;28;20199;-70
2022/04/19 01:53:44;;;;;;;0.10;0.10;;;4.70;99.90;12.80;88045.00;;;;5011942;28;20238;-70
2022/04/19 01:56:14;;;;;;;0.10;0.10;;;4.90;99.90;12.80;88045.00;;;;5027786;28;20658;-70
2022/04/19 01:58:54;;;;;;;0.10;0.10;;;5.00;99.90;12.80;88045.00;;;;5013348;28;20506;-70
2022/04/19 02:01:35;;;;;;;0.10;0.10;;;5.10;99.90;12.80;88045.00;;;;5011696;28;20747;-70
2022/04/19 02:04:04;;;;;;;0.10;0.10;;;5.00;99.90;12.80;88045.00;;;;5011722;28;20196;-70
2022/04/19 02:06:32;;;;;;;0.10;0.10;;;4.70;99.90;12.80;88045.00;;;;5011340;28;20286;-70
2022/04/19 02:09:03;;;;;;;0.10;0.10;;;4.60;99.90;12.80;88045.00;;;;5011644;28;20236;-70
2022/04/19 02:11:32;;;;;;;0.10;0.10;;;4.80;99.90;12.80;88045.00;;;;5011511;28;20686;-70
2022/04/19 02:14:10;;;;;;;0.10;0.10;;;4.70;99.90;12.80;88045.00;;;;5027798;28;20200;-70
2022/04/19 02:16:42;;;;;;;0.10;0.10;;;4.60;99.90;12.80;88045.00;;;;5027727;28;20198;-70
2022/04/19 02:19:10;;;;;;;0.10;0.10;;;4.40;99.90;12.80;88045.00;;;;5012391;28;20191;-70
2022/04/19 02:21:38;;;;;;;0.10;0.10;;;4.50;99.90;12.80;88045.00;;;;5011121;28;20227;-70
2022/04/19 02:24:08;;;;;;;0.10;0.10;;;4.50;99.90;12.80;88045.00;;;;5012526;28;20739;-70
2022/04/19 02:26:37;;;;;;;0.10;0.10;;;4.60;99.90;12.80;88045.00;;;;5011448;28;20209;-70
2022/04/19 02:29:05;;;;;;;0.10;0.10;;;4.60;99.90;12.80;88045.00;;;;5011484;28;20204;-70
2022/04/19 02:31:36;;;;;;;0.10;0.10;;;4.70;99.90;12.80;88045.00;;;;5019680;28;20219;-70
2022/04/19 02:34:06;;;;;;;0.10;0.10;;;4.20;99.90;12.80;88045.00;;;;5013522;28;20188;-70
2022/04/19 02:36:36;;;;;;;0.10;0.10;;;4.20;99.90;12.80;88045.00;;;;5012216;28;20286;-70
2022/04/19 02:39:05;;;;;;;0.10;0.10;;;4.20;99.90;12.80;88045.00;;;;5012658;28;20609;-70
2022/04/19 02:41:36;;;;;;;0.10;0.10;;;4.10;99.90;12.80;88045.00;;;;5012610;28;20215;-70
2022/04/19 02:44:07;;;;;;;0.10;0.10;;;3.90;99.90;12.80;88045.00;;;;5011213;28;20729;-70
2022/04/19 02:46:36;;;;;;;0.10;0.10;;;3.90;99.90;12.80;88045.00;;;;5028841;28;20290;-70
2022/04/19 02:49:06;;;;;;;0.10;0.10;;;4.00;99.90;12.80;88045.00;;;;5047143;28;20578;-70
2022/04/19 02:51:36;;;;;;;0.10;0.10;;;4.00;99.90;12.80;88045.00;;;;5030639;28;20221;-70
2022/04/19 02:54:04;;;;;;;0.15;0.15;;;3.90;99.90;12.80;88045.00;;;;5046911;28;20568;-70
2022/04/19 02:56:32;;;;;;;0.10;0.10;;;3.80;99.90;12.80;88045.00;;;;5030234;28;20191;-70
2022/04/19 02:59:03;;;;;;;0.10;0.10;;;3.70;99.90;12.80;88045.00;;;;5047024;28;20841;-70
2022/04/19 03:01:31;;;;;;;0.10;0.10;;;3.90;99.90;12.80;88045.00;;;;5030629;28;20313;-70
2022/04/19 03:04:00;;;;;;;0.20;0.20;;;3.90;99.90;12.80;88045.00;;;;5032015;28;20223;-70
2022/04/19 03:06:28;;;;;;;0.10;0.10;;;3.90;99.90;12.80;88045.00;;;;5031886;28;20203;-70
2022/04/19 03:08:59;;;;;;;0.10;0.10;;;4.00;99.90;12.80;88045.00;;;;5031315;28;20564;-70
2022/04/19 03:11:27;;;;;;;0.10;0.10;;;4.00;99.90;12.80;88045.00;;;;5031332;28;20229;-70
2022/04/19 03:13:59;;;;;;;0.10;0.10;;;4.00;99.90;12.80;88045.00;;;;5047510;28;20609;-70
2022/04/19 03:16:29;;;;;;;0.10;0.10;;;4.10;99.90;12.80;88045.00;;;;5047075;28;20205;-70
2022/04/19 03:18:57;;;;;;;0.10;0.10;;;4.10;99.90;12.80;88045.00;;;;5032310;28;20246;-70
2022/04/19 03:21:25;;;;;;;0.10;0.10;;;4.30;99.90;12.80;88045.00;;;;5047276;28;20280;-70
2022/04/19 03:29:24;;;;;;;0.10;0.10;;;4.00;99.90;12.80;88045.00;;;;5034300;28;20210;-70
2022/04/19 03:31:54;;;;;;;0.10;0.10;;;4.00;99.90;12.80;88045.00;;;;5050907;28;20211;-70
2022/04/19 03:34:24;;;;;;;0.10;0.10;;;4.00;99.90;12.80;88045.00;;;;5050641;28;20209;-70
2022/04/19 03:36:52;;;;;;;0.10;0.10;;;4.00;99.90;12.80;88045.00;;;;5050135;28;20205;-70
2022/04/19 03:39:21;;;;;;;0.10;0.10;;;4.00;99.90;12.80;88045.00;;;;5050380;28;20226;-70
2022/04/19 03:41:49;;;;;;;0.10;0.10;;;4.00;99.90;12.80;88045.00;;;;5033664;28;20658;-70
2022/04/19 03:44:17;;;;;;;0.10;0.10;;;3.90;99.90;12.80;88045.00;;;;5034247;28;20209;-70
2022/04/19 03:49:34;;;;;;;0.10;0.10;;;3.80;99.90;12.80;88045.00;;;;5034133;28;20265;-70
2022/04/19 03:52:02;;;;;;;0.10;0.10;;;3.90;99.90;12.80;88045.00;;;;5050349;28;20302;-70
2022/04/19 03:54:31;;;;;;;0.10;0.10;;;4.00;99.90;12.80;88045.00;;;;5035115;28;20199;-70
2022/04/19 03:56:59;;;;;;;0.10;0.10;;;4.00;99.90;12.80;88045.00;;;;5049939;28;20245;-70
2022/04/19 03:59:27;;;;;;;0.10;0.10;;;4.00;99.90;12.80;88045.00;;;;5032546;28;20708;-70
2022/04/19 04:01:55;;;;;;;0.10;0.10;;;3.90;99.90;12.80;88045.00;;;;5033429;28;20318;-70
2022/04/19 04:04:23;;;;;;;0.10;0.10;;;4.00;99.90;12.80;88045.00;;;;5034711;28;20195;-70
2022/04/19 04:06:52;;;;;;;0.10;0.10;;;3.90;99.90;12.80;88045.00;;;;5049899;28;20199;-70
2022/04/19 04:09:20;;;;;;;0.10;0.10;;;3.80;99.90;12.80;88045.00;;;;5050240;28;20194;-70
2022/04/19 04:11:53;;;;;;;0.10;0.10;;;3.90;99.90;12.80;88045.00;;;;5050370;28;20727;-70
2022/04/19 04:14:20;;;;;;;0.10;0.10;;;3.90;99.90;12.80;88045.00;;;;5033693;28;20241;-70
2022/04/19 04:16:49;;;;;;;0.10;0.10;;;3.80;99.90;12.80;88045.00;;;;5034656;28;20191;-70
2022/04/19 04:19:17;;;;;;;0.10;0.10;;;3.90;99.90;12.80;88045.00;;;;5034895;28;20222;-70
2022/04/19 04:21:45;;;;;;;0.10;0.10;;;3.90;99.90;12.80;88045.00;;;;5050532;28;20644;-71
2022/04/19 04:24:15;;;;;;;0.10;0.10;;;4.00;99.90;12.80;88045.00;;;;5034180;28;20722;-71
2022/04/19 04:26:44;;;;;;;0.10;0.10;;;4.10;99.90;12.80;88045.00;;;;5051126;28;20191;-70
2022/04/19 04:29:14;;;;;;;0.10;0.10;;;4.10;99.90;12.80;88045.00;;;;5039445;28;20722;-71
2022/04/19 04:31:44;;;;;;;0.10;0.10;;;4.00;99.90;12.80;88045.00;;;;5055343;28;20245;-71
2022/04/19 04:34:17;;;;;;;0.10;0.10;;;4.10;99.90;12.80;88045.00;;;;5051819;28;20221;-70
2022/04/19 04:36:47;;;;;;;0.10;0.10;;;4.20;99.90;12.80;88045.00;;;;5049530;28;20203;-71
2022/04/19 04:39:20;;;;;;;0.10;0.10;;;4.20;99.90;12.80;88045.00;;;;5049591;28;20226;-71
2022/04/19 04:42:09;;;;;;;0.10;0.10;;;4.10;99.90;12.80;88045.00;;;;5012963;28;20635;-71
2022/04/19 04:44:37;;;;;;;0.10;0.10;;;4.20;99.90;12.80;88045.00;;;;5033052;28;20245;-70
2022/04/19 04:49:52;;;;;;;0.10;0.10;;;4.30;99.90;12.80;88045.00;;;;5033039;28;20210;-71
2022/04/19 04:52:21;;;;;;;0.10;0.10;;;4.40;99.90;12.80;88045.00;;;;5049248;28;20249;-71
2022/04/19 04:54:53;;;;;;;0.10;0.10;;;4.30;99.90;12.80;88045.00;;;;5049333;28;20199;-71
2022/04/19 04:57:30;;;;;;;0.10;0.10;;;4.30;99.90;12.80;88045.00;;;;5049296;28;20206;-71
2022/04/19 04:59:59;;;;;;;0.10;0.10;;;4.30;99.90;12.80;88045.00;;;;5049300;28;20634;-70
2022/04/19 05:02:34;;;;;;;0.10;0.10;;;4.30;99.90;12.80;88045.00;;;;5049167;28;20221;-71
2022/04/19 05:05:02;;;;;;;0.10;0.10;;;4.40;99.90;12.80;88045.00;;;;5049057;28;20290;-71
2022/04/19 05:07:30;;;;;;;0.10;0.10;;;4.40;99.90;12.80;88045.00;;;;5049125;28;20648;-71
2022/04/19 05:10:00;;;;;;;0.10;0.10;;;4.50;99.90;12.80;88045.00;;;;5049404;28;20201;-71
2022/04/19 05:12:32;;;;;;;0.10;0.10;;;4.40;99.90;12.80;88045.00;;;;5049080;28;20696;-71
2022/04/19 05:15:00;;;;;;;0.10;0.10;;;4.40;99.90;12.80;88045.00;;;;5032571;28;20195;-71
2022/04/19 05:17:35;;;;;;;0.10;0.10;;;4.40;99.90;12.80;88045.00;;;;5032615;28;20613;-71
2022/04/19 05:20:05;;;;;;;0.10;0.10;;;4.50;99.90;12.80;88045.00;;;;5032259;28;20253;-71
2022/04/19 05:22:37;;;;;;;0.10;0.10;;;4.60;99.90;12.80;88045.00;;;;5032001;28;20223;-71
2022/04/19 05:25:08;;;;;;;0.10;0.10;;;4.40;99.90;12.80;88045.00;;;;5048616;28;20202;-70
2022/04/19 05:27:37;;;;;;;0.10;0.10;;;4.50;99.90;12.80;88045.00;;;;5032055;28;20668;-71
2022/04/19 05:30:07;;;;;;;0.10;0.10;;;4.30;99.90;12.80;88045.00;;;;5048894;28;20727;-70
2022/04/19 05:32:35;;;;;;;0.00;0.00;;;4.40;99.90;12.80;88045.00;;;;5033768;28;20214;-69
2022/04/19 05:35:08;;;;;;;0.10;0.10;;;4.40;99.90;12.80;88045.00;;;;5033283;28;20608;-70
2022/04/19 05:37:37;;;;;;;0.10;0.10;;;4.50;99.90;12.80;88045.00;;;;5031839;28;20572;-70
2022/04/19 05:40:09;;;;;;;0.00;0.00;;;4.70;99.90;12.80;88045.00;;;;5033173;28;20681;-70
2022/04/19 05:42:38;;;;;;;0.10;0.10;;;4.50;99.90;12.80;88045.00;;;;5032140;28;20219;-72
2022/04/19 05:45:08;;;;;;;0.10;0.10;;;4.70;99.90;12.80;88045.00;;;;5048518;28;20232;-70
2022/04/19 05:47:37;;;;;;;0.10;0.10;;;4.70;99.90;12.80;88045.00;;;;5027417;28;20207;-70
2022/04/19 05:50:06;;;;;;;0.10;0.10;;;4.80;99.90;12.80;88045.00;;;;5013658;28;20207;-70
2022/04/19 05:52:35;;;;;;;0.10;0.10;;;4.90;99.90;12.80;88045.00;;;;5011934;28;20227;-70
2022/04/19 05:55:10;;;;;;;0.10;0.10;;;5.10;99.90;12.80;88045.00;;;;5011941;28;20204;-70
2022/04/19 05:57:38;;;;;;;0.10;0.10;;;5.20;99.90;12.80;88045.00;;;;5012854;28;20192;-71
2022/04/19 06:00:08;;;;;;;0.10;0.10;;;5.20;99.90;12.80;88045.00;;;;5012098;28;20731;-71
2022/04/19 06:05:35;;;;;;;0.10;0.10;;;5.30;99.90;12.80;88045.00;;;;5011681;28;20192;-71
2022/04/19 06:08:04;;;;;;;0.10;0.10;;;5.30;99.90;12.80;88045.00;;;;5014343;28;20196;-70
2022/04/19 06:10:33;;;;;;;0.10;0.10;;;5.40;99.90;12.80;88045.00;;;;5016314;28;20195;-70
2022/04/19 06:13:01;;;;;;;0.10;0.10;;;5.50;99.90;12.80;88045.00;;;;5014271;28;20288;-70
2022/04/19 06:15:31;;;;;;;0.10;0.10;;;5.70;99.90;12.80;88045.00;;;;5015754;28;20250;-70
2022/04/19 06:17:59;;;;;;;0.10;0.10;;;5.80;99.90;12.80;88045.00;;;;5015138;28;20196;-70
2022/04/19 06:21:00;;;;;;;0.10;0.10;;;5.90;99.90;12.80;88045.00;;;;5005857;28;20235;-70
2022/04/19 06:23:29;;;;;;;0.10;0.10;;;6.00;99.90;12.80;88045.00;;;;5015052;28;20288;-71
2022/04/19 06:25:59;;;;;;;0.10;0.10;;;6.10;99.90;12.80;88045.00;;;;5015333;28;20854;-71
2022/04/19 06:28:29;;;;;;;0.10;0.10;;;6.20;99.90;12.80;88045.00;;;;5015373;28;20223;-71
2022/04/19 06:31:16;;;;;;;0.10;0.10;;;6.40;99.90;12.80;88045.00;;;;5013184;28;20238;-71
2022/04/19 06:33:57;;;;;;;0.10;0.10;;;6.70;99.90;12.80;88045.00;;;;5011233;28;20202;-71
2022/04/19 06:36:32;;;;;;;0.10;0.10;;;6.90;99.90;12.80;88045.00;;;;5010860;28;20294;-72
2022/04/19 06:39:00;;;;;;;0.10;0.10;;;7.00;99.90;12.80;88045.00;;;;5012272;28;20195;-71
2022/04/19 06:41:29;;;;;;;0.10;0.10;;;7.10;99.90;12.80;88045.00;;;;5011343;28;20216;-70
2022/04/19 06:43:59;;;;;;;0.10;0.10;;;7.30;99.90;12.80;88045.00;;;;5011468;28;20223;-71
2022/04/19 06:46:30;;;;;;;0.10;0.10;;;7.50;99.90;12.80;88045.00;;;;5027568;28;20191;-71
2022/04/19 06:49:06;;;;;;;0.10;0.10;;;7.60;99.90;12.80;88045.00;;;;5011517;28;20203;-72
2022/04/19 06:51:34;;;;;;;0.10;0.10;;;7.70;99.90;12.80;88045.00;;;;5011527;28;20215;-70
2022/04/19 06:54:07;;;;;;;0.10;0.10;;;7.80;99.90;12.80;88045.00;;;;5011073;28;20561;-71
2022/04/19 06:56:45;;;;;;;0.10;0.10;;;7.90;99.90;12.80;88045.00;;;;5011045;28;20262;-70
2022/04/19 06:59:14;;;;;;;0.10;0.10;;;8.10;99.90;12.80;88045.00;;;;5009979;28;20196;-71
2022/04/19 07:01:43;;;;;;;0.10;0.10;;;8.40;99.90;12.80;88045.00;;;;5011353;28;20211;-71
2022/04/19 07:04:46;;;;;;;0.10;0.10;;;8.50;99.90;12.80;88045.00;;;;4990390;28;20204;-70
2022/04/19 07:07:14;;;;;;;0.10;0.10;;;8.60;99.90;12.80;88045.00;;;;5002926;28;20716;-71
2022/04/19 07:09:48;;;;;;;0.10;0.10;;;8.70;68.10;12.80;88045.00;;;;5011387;28;20203;-70
2022/04/19 07:12:19;;;;;;;0.10;0.10;;;8.70;99.90;12.80;88045.00;;;;5010804;28;20289;-71
2022/04/19 07:14:58;;;;;;;0.10;0.10;;;8.70;99.90;12.80;88045.00;;;;5011194;28;20204;-71
2022/04/19 07:17:39;;;;;;;0.20;0.20;;;8.80;99.90;12.80;88045.00;;;;5010959;28;20227;-71
2022/04/19 07:28:35;;;;;;;0.10;0.10;;;9.00;1.00;12.80;88045.00;;;;5027185;28;20309;-70
2022/04/19 07:31:04;;;;;;;0.10;0.10;;;9.00;1.00;12.80;88045.00;;;;5011141;28;20286;-72
2022/04/19 07:33:37;;;;;;;0.10;0.10;;;9.10;1.00;12.80;88045.00;;;;5012501;28;20295;-71
2022/04/19 07:36:06;;;;;;;0.10;0.10;;;9.30;99.90;12.80;88045.00;;;;5010522;28;20196;-71
2022/04/19 07:38:34;;;;;;;0.10;0.10;;;9.40;1.00;12.80;88045.00;;;;5010935;28;20227;-71
2022/04/19 07:41:18;;;;;;;0.10;0.10;;;9.40;1.00;12.80;88045.00;;;;5010216;28;20235;-70
2022/04/19 07:43:50;;;;;;;0.10;0.10;;;9.50;22.80;12.80;88045.00;;;;5010704;28;20204;-70
2022/04/19 07:46:18;;;;;;;0.00;0.00;;;9.50;21.60;12.80;88045.00;;;;5010283;28;20211;-70
2022/04/19 07:48:49;;;;;;;0.10;0.10;;;9.60;2.80;12.80;88045.00;;;;5010805;28;20242;-70
2022/04/19 07:51:17;;;;;;;0.00;0.00;;;9.80;1.00;12.80;88045.00;;;;5010345;28;20333;-71
2022/04/19 07:53:46;;;;;;;0.10;0.10;;;9.90;1.00;12.80;88045.00;;;;5010513;28;20196;-71
2022/04/19 07:56:18;;;;;;;0.10;0.10;;;9.90;99.90;12.80;88045.00;;;;5010077;28;20725;-71
2022/04/19 07:58:47;;;;;;;0.10;0.10;;;10.10;99.90;12.80;88045.00;;;;5010565;28;20202;-70
2022/04/19 08:01:18;;;;;;;0.10;0.10;;;10.40;99.90;12.80;88045.00;;;;5010007;28;20306;-71
2022/04/19 08:03:48;;;;;;;0.00;0.00;;;10.60;99.90;12.80;88045.00;;;;5011605;28;20202;-71
2022/04/19 08:06:16;;;;;;;0.10;0.10;;;10.60;99.90;12.80;88045.00;;;;5009947;28;20223;-70
2022/04/19 08:08:44;;;;;;;0.10;0.10;;;10.60;99.90;12.80;88045.00;;;;5012208;28;20199;-71
2022/04/19 08:11:12;;;;;;;0.10;0.10;;;10.70;99.60;12.80;88045.00;;;;5013635;28;20295;-70
2022/04/19 08:13:41;;;;;;;0.10;0.10;;;10.80;99.30;12.80;88045.00;;;;5013817;28;20196;-70
2022/04/19 08:16:09;;;;;;;0.10;0.10;;;10.90;99.80;12.80;88045.00;;;;5014600;28;20195;-70
2022/04/19 08:18:41;;;;;;;0.10;0.10;;;11.00;98.60;12.80;88045.00;;;;5013674;28;20680;-70
2022/04/19 08:21:09;;;;;;;0.10;0.10;;;11.10;98.90;12.80;88045.00;;;;5013405;28;20231;-71
2022/04/19 08:23:38;;;;;;;0.10;0.10;;;11.00;99.10;12.80;88045.00;;;;5029939;28;20565;-70
2022/04/19 08:26:10;;;;;;;0.10;0.10;;;11.10;99.70;12.80;88045.00;;;;5013208;28;20192;-71
2022/04/19 08:28:38;;;;;;;0.10;0.10;;;11.20;99.40;12.80;88045.00;;;;5013227;28;20286;-71
2022/04/19 08:31:06;;;;;;;0.10;0.10;;;11.20;99.00;12.80;88045.00;;;;5014228;28;20191;-71
2022/04/19 08:33:34;;;;;;;0.10;0.10;;;11.30;99.20;12.80;88045.00;;;;5012875;28;20203;-70
2022/04/19 08:36:06;;;;;;;0.10;0.10;;;11.20;99.50;12.80;88045.00;;;;5015453;28;20198;-71
2022/04/19 08:38:35;;;;;;;0.10;0.10;;;11.30;99.50;12.80;88045.00;;;;5022620;28;20211;-71
2022/04/19 08:41:03;;;;;;;0.10;0.10;;;11.40;99.70;12.80;88045.00;;;;5013307;28;20231;-72
2022/04/19 08:43:33;;;;;;;0.10;0.10;;;11.50;99.80;12.80;88045.00;;;;5013520;28;20207;-70
2022/04/19 08:46:02;;;;;;;0.10;0.10;;;11.70;99.90;12.80;88045.00;;;;5033657;28;20273;-71
2022/04/19 08:48:32;;;;;;;0.10;0.10;;;11.80;99.90;12.80;88045.00;;;;5039216;28;20199;-71
2022/04/19 08:51:05;;;;;;;0.10;0.10;;;11.80;99.90;12.80;88045.00;;;;5040533;28;20199;-71
2022/04/19 08:59:05;;;;;;;0.10;0.10;;;12.20;99.90;12.80;88045.00;;;;5034288;28;20206;-72
2022/04/19 09:01:34;;;;;;;0.10;0.10;;;12.10;99.90;12.80;88045.00;;;;5034170;28;20222;-70
2022/04/19 09:04:06;;;;;;;0.00;0.00;;;12.20;99.90;12.80;88045.00;;;;5033823;28;20195;-71
2022/04/19 09:06:53;;;;;;;0.10;0.10;;;12.20;99.90;12.80;88045.00;;;;5033835;28;20191;-71
2022/04/19 09:09:24;;;;;;;0.10;0.10;;;12.20;99.90;12.80;88045.00;;;;5034285;28;20217;-71
2022/04/19 09:11:54;;;;;;;0.10;0.10;;;12.10;99.90;12.80;88045.00;;;;5033504;28;20269;-71
2022/04/19 09:14:23;;;;;;;0.10;0.10;;;12.20;99.80;12.80;88045.00;;;;5033218;28;20206;-71
2022/04/19 09:17:04;;;;;;;0.10;0.10;;;12.30;99.50;12.80;88045.00;;;;5033286;28;20210;-70
2022/04/19 09:19:32;;;;;;;0.10;0.10;;;12.40;99.70;12.80;88045.00;;;;5033708;28;20656;-71
2022/04/19 09:22:02;;;;;;;0.08;0.08;;;12.40;99.70;12.80;88045.00;;;;5032689;28;20604;-71
2022/04/19 09:24:31;;;;;;;0.10;0.10;;;12.40;99.70;12.80;88045.00;;;;5032927;28;20202;-71
2022/04/19 09:26:58;;;;;;;0.10;0.10;;;12.30;99.30;12.80;88045.00;;;;5033335;28;20274;-71
2022/04/19 09:29:28;;;;;;;0.10;0.10;;;12.30;99.70;12.80;88045.00;;;;5032884;28;20199;-71
2022/04/19 09:32:01;;;;;;;0.10;0.10;;;12.30;98.70;12.80;88045.00;;;;5033190;28;20215;-71
2022/04/19 09:34:33;;;;;;;0.10;0.10;;;12.20;98.30;12.80;88045.00;;;;5033572;28;20195;-71
2022/04/19 09:37:12;;;;;;;0.10;0.10;;;12.20;98.60;12.80;88045.00;;;;5031931;28;20225;-71
2022/04/19 09:39:44;;;;;;;0.08;0.08;;;12.30;98.90;12.80;88045.00;;;;5034038;28;20680;-71
2022/04/19 09:42:13;;;;;;;0.10;0.10;;;12.40;98.90;12.80;88045.00;;;;5033135;28;20226;-70
2022/04/19 09:44:43;;;;;;;0.10;0.10;;;12.50;98.80;12.80;88045.00;;;;5034552;28;20222;-70
2022/04/19 09:47:13;;;;;;;0.10;0.10;;;12.70;98.40;12.80;88045.00;;;;5034598;28;20202;-71
2022/04/19 09:49:44;;;;;;;0.10;0.10;;;12.80;98.70;12.80;88045.00;;;;5049356;28;20211;-69
2022/04/19 09:52:48;;;;;;;0.10;0.10;;;12.90;98.40;12.80;88045.00;;;;5032556;28;20254;-70
2022/04/19 09:55:19;;;;;;;0.10;0.10;;;12.90;98.60;12.80;88045.00;;;;5032532;28;20540;-71
2022/04/19 09:57:49;;;;;;;0.10;0.10;;;13.00;98.80;12.80;88045.00;;;;5032434;28;20222;-71
2022/04/19 10:00:19;;;;;;;0.10;0.10;;;13.10;98.30;12.80;88045.00;;;;5032516;28;20249;-71
2022/04/19 10:08:21;;;;;;;0.10;0.10;;;13.50;98.20;12.80;88045.00;;;;5032774;28;20203;-70
2022/04/19 10:10:53;;;;;;;0.10;0.10;;;13.30;98.40;12.80;88045.00;;;;5033082;28;20673;-71
2022/04/19 10:13:23;;;;;;;0.10;0.10;;;13.10;98.60;12.80;88045.00;;;;5032369;28;20679;-70
2022/04/19 10:15:53;;;;;;;0.10;0.10;;;13.10;98.60;12.80;88045.00;;;;5032268;28;20223;-71
2022/04/19 10:18:21;;;;;;;0.10;0.10;;;12.90;99.20;12.80;88045.00;;;;5032938;28;20214;-71
2022/04/19 10:20:58;;;;;;;0.10;0.10;;;13.00;99.70;12.80;88045.00;;;;5034974;28;20199;-71
2022/04/19 10:23:36;;;;;;;0.10;0.10;;;13.10;99.40;12.80;88045.00;;;;5034412;28;20213;-71
2022/04/19 10:26:17;;;;;;;0.10;0.10;;;13.20;98.70;12.80;88045.00;;;;5032779;28;20203;-71
2022/04/19 10:28:46;;;;;;;0.10;0.10;;;13.10;98.60;12.80;88045.00;;;;5032234;28;20555;-71
2022/04/19 10:31:26;;;;;;;0.10;0.10;;;13.00;98.90;12.80;88045.00;;;;5030117;28;20249;-70
2022/04/19 10:33:55;;;;;;;0.10;0.10;;;13.10;99.70;12.80;88045.00;;;;5011703;28;20584;-71
2022/04/19 10:36:36;;;;;;;0.10;0.10;;;13.30;99.40;12.80;88045.00;;;;5012310;28;20610;-71
2022/04/19 10:39:23;;;;;;;0.10;0.10;;;13.30;99.60;12.80;88045.00;;;;5012379;28;20320;-71
2022/04/19 10:41:57;;;;;;;0.10;0.10;;;13.30;99.10;12.80;88045.00;;;;5012630;28;20215;-71
2022/04/19 10:44:34;;;;;;;0.10;0.10;;;13.30;99.10;12.80;88045.00;;;;5012541;28;20210;-70
2022/04/19 10:47:15;;;;;;;0.08;0.08;;;13.20;99.40;12.80;88045.00;;;;5012453;28;20199;-71
2022/04/19 10:49:55;;;;;;;0.10;0.10;;;13.20;99.00;12.80;88045.00;;;;5014287;28;20196;-70
2022/04/19 10:52:46;;;;;;;0.10;0.10;;;13.30;98.50;12.80;88045.00;;;;5020739;28;20275;-70
2022/04/19 10:55:31;;;;;;;0.10;0.10;;;13.20;98.90;12.80;88045.00;;;;5012167;28;20238;-71
2022/04/19 10:58:21;;;;;;;0.10;0.10;;;13.20;99.00;12.80;88045.00;;;;5013815;28;20198;-70
2022/04/19 11:00:53;;;;;;;0.10;0.10;;;13.10;99.20;12.80;88045.00;;;;5032007;28;20329;-70
2022/04/19 11:03:52;;;;;;;0.00;0.00;;;13.30;98.80;12.80;88045.00;;;;5031895;28;20218;-71
2022/04/19 11:06:33;;;;;;;0.10;0.10;;;13.40;98.80;12.80;88045.00;;;;5031513;28;20206;-71
2022/04/19 11:09:19;;;;;;;0.00;0.00;;;13.60;98.60;12.80;88045.00;;;;5032144;28;20199;-71
2022/04/19 11:11:54;;;;;;;0.10;0.10;;;13.60;97.50;12.80;88045.00;;;;5031700;28;20218;-71
2022/04/19 11:14:36;;;;;;;0.10;0.10;;;13.70;97.30;12.80;88045.00;;;;5032177;28;20194;-71
2022/04/19 11:17:29;;;;;;;0.00;0.00;;;13.60;96.00;12.80;88045.00;;;;5031343;28;20195;-70
2022/04/19 11:20:11;;;;;;;0.10;0.10;;;13.50;95.70;12.80;88045.00;;;;5031739;28;20270;-70
2022/04/19 11:22:51;;;;;;;0.10;0.10;;;13.10;96.00;12.80;88045.00;;;;5031241;28;20223;-70
2022/04/19 11:25:42;;;;;;;0.10;0.10;;;13.10;96.60;12.80;88045.00;;;;5031417;28;20195;-71
2022/04/19 11:28:24;;;;;;;0.10;0.10;;;13.10;97.20;12.80;88045.00;;;;5031610;28;20191;-70
2022/04/19 11:31:14;;;;;;;0.10;0.10;;;13.10;97.00;12.80;88045.00;;;;5030671;28;20253;-70
2022/04/19 11:33:42;;;;;;;0.10;0.10;;;13.10;96.00;12.80;88045.00;;;;5031688;28;20286;-70
2022/04/19 11:36:13;;;;;;;0.10;0.10;;;13.20;96.00;12.80;88045.00;;;;5031396;28;20191;-71
2022/04/19 11:38:45;;;;;;;0.10;0.10;;;13.40;95.80;12.80;88045.00;;;;5032275;28;20227;-71
2022/04/19 11:46:55;;;;;;;0.10;0.10;;;13.30;94.60;12.80;88045.00;;;;5019265;28;20195;-70
2022/04/19 11:49:34;;;;;;;0.10;0.10;;;13.20;93.80;12.80;88045.00;;;;5035185;28;20657;-70
2022/04/19 11:52:09;;;;;;;0.10;0.10;;;13.20;93.80;12.80;88045.00;;;;5034944;28;20234;-70
2022/04/19 11:54:37;;;;;;;0.10;0.10;;;13.40;94.20;12.80;88045.00;;;;5035459;28;20237;-70
2022/04/19 11:57:08;;;;;;;0.10;0.10;;;13.90;93.40;12.80;88045.00;;;;5034804;28;20190;-70
2022/04/19 11:59:40;;;;;;;0.10;0.10;;;14.10;93.50;12.80;88045.00;;;;5035342;28;20274;-70